Sanford, Texas
Current Conditions -  °F | °C
As of 11:51 AM on Sunday 23 Nov 2014 (Local Time) from KBGD Reporting Station
Overcast Overcast  
Wind Chill: 51°   Ceiling: 7000
Heat Index: 51°   Visibility: 10mi
Dew Point: 27°   Wind: 28mph
Humidity: 39%   Direction: 10°N
Pressure: 29.64"   Gusts: 40mph
Location:  35.7°N, 101.53°W
Report Text: KBGD 231751Z AUTO 01024G35KT 10SM FEW055 OVC070 11/M03 A2964 RMK AO2 PK WND 35037/1729 SLP027 T01061028 10133 20083 51019
Loading
Personal Weather Stations






























Interactive Weather Map New forecast layout! Learn more

10-Day Weather Forecast

Advertisements
Track Severe Weather on mobile